< < Back
Terminal Aerodrome Forecast


Current Version              Previous Versions:   1  2  3  4  5  6  7  8  9  

Terminal Aerodrome Forecast

280
FTUS42 KJAX 010500 RRA
TAFGNV
TAF
KGNV 010541Z 0106/0206 04003KT P6SM BKN050
     FM010800 02002KT 5SM BR SCT020 BKN050
     FM011100 00000KT 1SM BR BKN020 BKN050
     FM011300 03003KT 4SM BR BKN025 BKN050
     FM011500 05005KT P6SM SCT025 BKN050
     FM011800 05006KT P6SM BKN035=



Latest METAR

586
SAUS70 KWBC 010800 RRR
MTRGNV
METAR KGNV 010753Z AUTO 00000KT 10SM BKN033 BKN044 OVC055 22/21 A2988
RMK AO2 SLP114 T02220211


USA.gov is the U.S. government's official web portal to all federal, state and local government web resources and services.